Time;durP1;ratioP1;P1;durP2;ratioP2;P2;SDS_P1;SDS_P2;PMS_P1;PMS_P2;Temp;Humidity;BMP_temperature;BMP_pressure;BME280_temperature;BME280_humidity;BME280_pressure;Samples;Min_cycle;Max_cycle;Signal;HPM_P1;HPM_P2
2022/03/02 00:01:52;;;;;;;;;;;;;;;-1.48;51.38;100262.91;5050246;28;19947;-59
2022/03/02 00:04:17;;;;;;;;;;;;;;;-1.51;51.29;100252.78;5052071;28;19929;-59
2022/03/02 00:06:43;;;;;;;;;;;;;;;-1.54;51.18;100242.66;5051278;28;20386;-62
2022/03/02 00:09:08;;;;;;;;;;;;;;;-1.63;51.30;100245.13;5051781;28;19975;-61
2022/03/02 00:11:34;;;;;;;;;;;;;;;-1.68;51.67;100249.91;5051544;28;20026;-60
2022/03/02 00:14:00;;;;;;;;;;;;;;;-1.74;51.68;100254.84;5051933;28;19974;-60
2022/03/02 00:16:28;;;;;;;;;;;;;;;-1.72;51.75;100243.34;5051956;28;19925;-59
2022/03/02 00:18:54;;;;;;;;;;;;;;;-1.74;51.83;100250.47;5050545;28;19951;-59
2022/03/02 00:21:20;;;;;;;;;;;;;;;-1.75;51.49;100246.22;5083997;28;19927;-59
2022/03/02 00:23:45;;;;;;;;;;;;;;;-1.73;51.89;100246.09;5051940;28;19936;-63
2022/03/02 00:26:11;;;;;;;;;;;;;;;-1.78;51.64;100249.09;5051866;28;20437;-60
2022/03/02 00:28:36;;;;;;;;;;;;;;;-1.79;52.06;100250.06;5051638;28;20446;-60
2022/03/02 00:31:02;;;;;;;;;;;;;;;-1.86;51.74;100246.34;5049744;28;19921;-61
2022/03/02 00:33:27;;;;;;;;;;;;;;;-1.85;52.42;100245.41;5051709;28;19995;-62
2022/03/02 00:35:53;;;;;;;;;;;;;;;-1.87;52.17;100248.13;5051798;28;19925;-60
2022/03/02 00:38:18;;;;;;;;;;;;;;;-1.88;52.21;100248.28;5051665;28;20026;-61
2022/03/02 00:40:44;;;;;;;;;;;;;;;-1.89;52.17;100244.03;5050274;28;19925;-60
2022/03/02 00:43:10;;;;;;;;;;;;;;;-1.88;52.67;100237.91;5033635;28;19933;-60
2022/03/02 00:45:35;;;;;;;;;;;;;;;-1.87;52.53;100232.53;5051363;28;20421;-60
2022/03/02 00:48:02;;;;;;;;;;;;;;;-1.89;52.54;100237.03;5050161;28;19929;-61
2022/03/02 00:50:27;;;;;;;;;;;;;;;-1.95;52.66;100232.41;5032891;28;20054;-60
2022/03/02 00:52:54;;;;;;;;;;;;;;;-1.96;52.68;100222.16;5066924;28;19975;-61
2022/03/02 00:55:19;;;;;;;;;;;;;;;-2.00;52.72;100229.41;5050189;28;19924;-60
2022/03/02 00:57:45;;;;;;;;;;;;;;;-2.00;52.38;100223.38;5050162;28;20305;-62
2022/03/02 01:00:11;;;;;;;;;;;;;;;-2.02;52.24;100231.31;5051057;28;19928;-61
2022/03/02 01:02:37;;;;;;;;;;;;;;;-2.05;52.77;100223.78;5066494;28;20410;-60
2022/03/02 01:05:03;;;;;;;;;;;;;;;-2.04;52.30;100222.00;5050021;28;19964;-61
2022/03/02 01:07:28;;;;;;;;;;;;;;;-2.07;52.59;100216.13;5051656;28;20015;-60
2022/03/02 01:09:54;;;;;;;;;;;;;;;-2.08;52.25;100218.88;5053304;28;20027;-59
2022/03/02 01:12:19;;;;;;;;;;;;;;;-2.14;52.36;100207.22;5054051;28;20412;-60
2022/03/02 01:14:45;;;;;;;;;;;;;;;-2.17;52.89;100206.69;5054997;28;20425;-58
2022/03/02 01:17:10;;;;;;;;;;;;;;;-2.15;52.41;100207.34;5055261;28;20366;-60
2022/03/02 01:19:37;;;;;;;;;;;;;;;-2.17;52.94;100204.91;5053337;28;19933;-61
2022/03/02 01:22:02;;;;;;;;;;;;;;;-2.15;52.83;100205.56;5055292;28;19928;-60
2022/03/02 01:24:28;;;;;;;;;;;;;;;-2.16;52.93;100201.34;5055091;28;19929;-61
2022/03/02 01:26:53;;;;;;;;;;;;;;;-2.16;52.87;100203.94;5037006;28;19925;-60
2022/03/02 01:36:07;;;;;;;;;;;;;;;-2.31;53.60;100193.13;5053923;28;19939;-60
2022/03/02 01:38:32;;;;;;;;;;;;;;;-2.35;53.60;100191.75;5053269;28;19929;-60
2022/03/02 01:40:58;;;;;;;;;;;;;;;-2.35;53.36;100181.38;5054526;28;19924;-59
2022/03/02 01:43:27;;;;;;;;;;;;;;;-2.34;54.03;100184.78;5054301;28;19935;-62
2022/03/02 01:45:53;;;;;;;;;;;;;;;-2.34;53.51;100185.59;5053494;28;20290;-60
2022/03/02 01:48:18;;;;;;;;;;;;;;;-2.30;53.12;100180.97;5054233;28;20058;-61
2022/03/02 01:50:44;;;;;;;;;;;;;;;-2.28;53.24;100173.84;5054328;28;19932;-60
2022/03/02 01:53:10;;;;;;;;;;;;;;;-2.26;52.72;100176.31;5054329;28;19935;-61
2022/03/02 01:55:35;;;;;;;;;;;;;;;-2.25;52.67;100170.19;5053949;28;20024;-59
2022/03/02 01:58:01;;;;;;;;;;;;;;;-2.28;52.80;100160.88;5054296;28;19929;-62
2022/03/02 02:00:26;;;;;;;;;;;;;;;-2.28;53.39;100163.47;5053741;28;19983;-62
2022/03/02 02:02:52;;;;;;;;;;;;;;;-2.35;53.19;100154.59;5054275;28;19940;-61
2022/03/02 02:05:18;;;;;;;;;;;;;;;-2.41;54.00;100152.50;5053206;28;19972;-61
2022/03/02 02:07:44;;;;;;;;;;;;;;;-2.42;53.87;100153.47;5054441;28;19971;-59
2022/03/02 02:10:10;;;;;;;;;;;;;;;-2.48;53.30;100151.41;5053717;28;19936;-61
2022/03/02 02:12:36;;;;;;;;;;;;;;;-2.53;53.32;100151.81;5054406;28;19925;-60
2022/03/02 02:15:03;;;;;;;;;;;;;;;-2.48;53.30;100154.00;5035883;28;20028;-62
2022/03/02 02:17:29;;;;;;;;;;;;;;;-2.46;53.17;100149.53;5053465;28;20379;-61
2022/03/02 02:19:54;;;;;;;;;;;;;;;-2.48;53.78;100151.41;5052482;28;19936;-61
2022/03/02 02:22:20;;;;;;;;;;;;;;;-2.58;53.82;100149.63;5054320;28;20413;-59
2022/03/02 02:24:46;;;;;;;;;;;;;;;-2.63;53.52;100146.59;5053221;28;19940;-61
2022/03/02 02:27:12;;;;;;;;;;;;;;;-2.58;53.51;100143.63;5053767;28;20385;-59
2022/03/02 02:29:37;;;;;;;;;;;;;;;-2.57;54.09;100140.06;5035485;28;20003;-60
2022/03/02 02:32:03;;;;;;;;;;;;;;;-2.55;53.82;100135.56;5053539;28;19959;-61
2022/03/02 02:34:29;;;;;;;;;;;;;;;-2.56;53.98;100134.75;5051971;28;20067;-60
2022/03/02 02:36:55;;;;;;;;;;;;;;;-2.61;54.57;100136.09;5052386;28;19925;-59
2022/03/02 02:39:20;;;;;;;;;;;;;;;-2.64;54.46;100142.38;5035906;28;20031;-60
2022/03/02 02:41:46;;;;;;;;;;;;;;;-2.75;55.19;100145.91;5035467;28;19955;-61
2022/03/02 02:44:11;;;;;;;;;;;;;;;-2.77;55.08;100139.19;5053494;28;19975;-60
2022/03/02 02:46:40;;;;;;;;;;;;;;;-2.83;54.27;100130.16;5052766;28;19932;-61
2022/03/02 02:49:06;;;;;;;;;;;;;;;-2.83;55.12;100131.94;5053353;28;19943;-60
2022/03/02 02:51:32;;;;;;;;;;;;;;;-2.85;54.84;100136.47;5053424;28;19929;-61
2022/03/02 02:53:58;;;;;;;;;;;;;;;-3.01;55.55;100111.00;5051603;28;19933;-61
2022/03/02 02:56:24;;;;;;;;;;;;;;;-2.98;55.36;100124.53;5052838;28;19960;-61
2022/03/02 02:58:49;;;;;;;;;;;;;;;-3.00;55.47;100125.59;5051863;28;19972;-63
2022/03/02 03:01:15;;;;;;;;;;;;;;;-3.08;55.04;100120.28;5052555;28;20428;-61
2022/03/02 03:03:41;;;;;;;;;;;;;;;-3.10;56.33;100119.59;5051693;28;19932;-62
2022/03/02 03:06:06;;;;;;;;;;;;;;;-3.04;56.57;100113.88;5052860;28;19983;-61
2022/03/02 03:08:32;;;;;;;;;;;;;;;-2.95;56.01;100109.66;5053143;28;19929;-61
2022/03/02 03:10:57;;;;;;;;;;;;;;;-2.88;55.08;100100.38;5052994;28;20382;-60
2022/03/02 03:13:24;;;;;;;;;;;;;;;-2.92;55.75;100104.22;5052857;28;19929;-62
2022/03/02 03:15:50;;;;;;;;;;;;;;;-2.94;56.18;100101.75;5067859;28;20457;-60
2022/03/02 03:18:16;;;;;;;;;;;;;;;-2.91;55.90;100100.66;5052449;28;20019;-60
2022/03/02 03:20:41;;;;;;;;;;;;;;;-2.87;55.45;100105.44;5052328;28;19968;-60
2022/03/02 03:23:07;;;;;;;;;;;;;;;-2.83;55.47;100108.59;5052704;28;20398;-60
2022/03/02 03:25:32;;;;;;;;;;;;;;;-2.83;54.92;100103.41;5052318;28;20307;-59
2022/03/02 03:27:58;;;;;;;;;;;;;;;-2.85;55.28;100097.56;5052580;28;20432;-60
2022/03/02 03:30:24;;;;;;;;;;;;;;;-2.82;55.64;100099.88;5052333;28;20445;-60
2022/03/02 03:32:50;;;;;;;;;;;;;;;-2.85;55.71;100092.34;5050417;28;19935;-60
2022/03/02 03:35:16;;;;;;;;;;;;;;;-2.91;55.22;100090.28;5051987;28;19924;-59
2022/03/02 03:37:42;;;;;;;;;;;;;;;-2.97;55.57;100089.06;5052689;28;19924;-60
2022/03/02 03:40:08;;;;;;;;;;;;;;;-2.98;55.21;100090.00;5052296;28;19952;-59
2022/03/02 03:42:34;;;;;;;;;;;;;;;-2.93;55.38;100087.00;5052511;28;19924;-60
2022/03/02 03:45:00;;;;;;;;;;;;;;;-2.95;55.42;100081.13;5050905;28;19974;-59
2022/03/02 03:47:25;;;;;;;;;;;;;;;-2.99;55.35;100081.38;5052526;28;19931;-60
2022/03/02 03:49:51;;;;;;;;;;;;;;;-3.03;55.82;100085.22;5052069;28;19929;-60
2022/03/02 03:52:16;;;;;;;;;;;;;;;-3.02;55.47;100080.84;5052372;28;19925;-60
2022/03/02 03:54:42;;;;;;;;;;;;;;;-3.05;56.12;100086.31;5051841;28;20441;-60
2022/03/02 03:57:08;;;;;;;;;;;;;;;-3.13;56.14;100079.16;5052233;28;20342;-60
2022/03/02 03:59:33;;;;;;;;;;;;;;;-3.13;55.53;100084.34;5052087;28;19935;-61
2022/03/02 04:01:59;;;;;;;;;;;;;;;-3.11;56.44;100076.47;5051918;28;19925;-60
2022/03/02 04:04:25;;;;;;;;;;;;;;;-3.12;56.31;100079.97;5050665;28;19925;-62
2022/03/02 04:06:51;;;;;;;;;;;;;;;-3.14;56.68;100071.53;5051774;28;19929;-60
2022/03/02 04:09:16;;;;;;;;;;;;;;;-3.16;56.32;100069.06;5067317;28;19966;-61
2022/03/02 04:11:42;;;;;;;;;;;;;;;-3.20;56.30;100076.28;5051588;28;19936;-60
2022/03/02 04:14:08;;;;;;;;;;;;;;;-3.20;55.85;100065.91;5066707;28;19925;-61
2022/03/02 04:16:34;;;;;;;;;;;;;;;-3.20;56.29;100076.28;5051989;28;19929;-60
2022/03/02 04:18:59;;;;;;;;;;;;;;;-3.23;56.32;100075.75;5051574;28;19925;-61
2022/03/02 04:21:25;;;;;;;;;;;;;;;-3.25;56.10;100075.03;5051655;28;19929;-59
2022/03/02 04:23:50;;;;;;;;;;;;;;;-3.28;56.12;100070.13;5051420;28;19925;-61
2022/03/02 04:26:16;;;;;;;;;;;;;;;-3.25;56.17;100080.22;5051481;28;20031;-61
2022/03/02 04:28:42;;;;;;;;;;;;;;;-3.26;55.91;100078.59;5084095;28;19924;-62
2022/03/02 04:31:07;;;;;;;;;;;;;;;-3.25;56.77;100086.22;5051541;28;19928;-60
2022/03/02 04:33:33;;;;;;;;;;;;;;;-3.22;55.83;100079.97;5050922;28;20593;-61
2022/03/02 04:35:58;;;;;;;;;;;;;;;-3.18;56.15;100073.53;5050170;28;19935;-59
2022/03/02 04:38:24;;;;;;;;;;;;;;;-3.14;56.41;100068.94;5051915;28;19924;-60
2022/03/02 04:40:50;;;;;;;;;;;;;;;-3.13;56.25;100073.97;5051515;28;20452;-60
2022/03/02 04:43:17;;;;;;;;;;;;;;;-3.11;55.71;100069.50;5051085;28;20375;-64
2022/03/02 04:45:43;;;;;;;;;;;;;;;-3.13;55.93;100073.97;5055203;28;19935;-59
2022/03/02 04:48:09;;;;;;;;;;;;;;;-3.09;55.10;100067.59;5055694;28;19924;-58
2022/03/02 04:50:35;;;;;;;;;;;;;;;-3.11;56.01;100063.50;5054059;28;20024;-55
2022/03/02 04:53:00;;;;;;;;;;;;;;;-3.10;55.31;100065.94;5055595;28;19932;-61
2022/03/02 04:55:26;;;;;;;;;;;;;;;-3.04;55.18;100068.00;5070120;28;19928;-60
2022/03/02 04:57:52;;;;;;;;;;;;;;;-2.98;55.45;100064.88;5055862;28;19925;-61
2022/03/02 05:00:23;;;;;;;;;;;;;;;-2.93;55.46;100061.88;5055592;28;19928;-63
2022/03/02 05:02:49;;;;;;;;;;;;;;;-2.91;55.25;100061.72;5055028;28;19935;-61
2022/03/02 05:05:15;;;;;;;;;;;;;;;-2.87;55.37;100057.94;5054016;28;19925;-61
2022/03/02 05:07:42;;;;;;;;;;;;;;;-2.80;55.00;100051.25;5087017;28;20311;-62
2022/03/02 05:10:08;;;;;;;;;;;;;;;-2.81;55.48;100060.81;5055151;28;19924;-63
2022/03/02 05:12:34;;;;;;;;;;;;;;;-2.78;54.86;100051.94;5055504;28;19983;-61
2022/03/02 05:14:59;;;;;;;;;;;;;;;-2.70;54.50;100056.47;5086585;28;19925;-61
2022/03/02 05:17:25;;;;;;;;;;;;;;;-2.66;54.09;100053.44;5055383;28;20045;-62
2022/03/02 05:19:50;;;;;;;;;;;;;;;-2.63;54.70;100047.97;5054762;28;20403;-62
2022/03/02 05:22:16;;;;;;;;;;;;;;;-2.60;54.88;100046.88;5053301;28;19952;-63
2022/03/02 05:24:42;;;;;;;;;;;;;;;-2.57;54.43;100042.25;5054715;28;19936;-62
2022/03/02 05:27:08;;;;;;;;;;;;;;;-2.56;54.51;100046.50;5055209;28;19936;-62
2022/03/02 05:29:34;;;;;;;;;;;;;;;-2.52;54.19;100047.84;5053445;28;20394;-62
2022/03/02 05:31:59;;;;;;;;;;;;;;;-2.46;54.21;100058.66;5054881;28;19931;-63
2022/03/02 05:34:25;;;;;;;;;;;;;;;-2.42;54.28;100062.59;5086575;28;19928;-64
2022/03/02 05:36:51;;;;;;;;;;;;;;;-2.31;53.87;100052.06;5086506;28;20378;-64
2022/03/02 05:39:16;;;;;;;;;;;;;;;-2.18;53.74;100047.41;5053975;28;19935;-62
2022/03/02 05:41:42;;;;;;;;;;;;;;;-2.07;53.05;100046.44;5053346;28;19929;-63
2022/03/02 05:44:11;;;;;;;;;;;;;;;-2.02;52.93;100043.44;5052779;28;19925;-63
2022/03/02 05:46:37;;;;;;;;;;;;;;;-1.96;52.75;100045.47;5051955;28;19932;-63
2022/03/02 05:49:04;;;;;;;;;;;;;;;-1.95;52.65;100044.50;5052069;28;20070;-64
2022/03/02 05:51:30;;;;;;;;;;;;;;;-1.97;52.92;100042.06;5053301;28;19929;-62
2022/03/02 05:53:59;;;;;;;;;;;;;;;-1.81;52.64;100043.25;5052621;28;19928;-62
2022/03/02 05:56:25;;;;;;;;;;;;;;;-1.73;52.02;100038.16;5062293;28;20477;-62
2022/03/02 05:58:53;;;;;;;;;;;;;;;-1.68;51.62;100041.94;5053125;28;20035;-62
2022/03/02 06:01:19;;;;;;;;;;;;;;;-1.63;51.80;100033.72;5052820;28;19928;-59
2022/03/02 06:03:45;;;;;;;;;;;;;;;-1.54;51.56;100029.47;5063454;28;19963;-62
2022/03/02 06:06:11;;;;;;;;;;;;;;;-1.51;51.57;100026.56;5048575;28;19929;-57
2022/03/02 06:08:36;;;;;;;;;;;;;;;-1.46;51.65;100024.38;5027227;28;19968;-59
2022/03/02 06:11:02;;;;;;;;;;;;;;;-1.35;51.28;100015.53;5051487;28;20017;-61
2022/03/02 06:13:28;;;;;;;;;;;;;;;-1.23;51.00;100017.81;5049872;28;19925;-61
2022/03/02 06:15:54;;;;;;;;;;;;;;;-1.10;50.83;100011.44;5050266;28;19976;-60
2022/03/02 06:18:20;;;;;;;;;;;;;;;-1.00;50.86;100012.19;5049086;28;19960;-61
2022/03/02 06:20:45;;;;;;;;;;;;;;;-0.92;50.51;100009.66;5048706;28;19951;-59
2022/03/02 06:23:11;;;;;;;;;;;;;;;-0.83;50.20;100010.56;5047007;28;20310;-62
2022/03/02 06:25:37;;;;;;;;;;;;;;;-0.76;49.96;100019.44;5047281;28;19933;-60
2022/03/02 06:28:02;;;;;;;;;;;;;;;-0.70;49.70;100018.84;5058709;28;19924;-62
2022/03/02 06:30:28;;;;;;;;;;;;;;;-0.66;49.93;100011.53;5069405;28;19925;-60
2022/03/02 06:32:54;;;;;;;;;;;;;;;-0.65;49.94;100018.38;5054301;28;19964;-62
2022/03/02 06:35:19;;;;;;;;;;;;;;;-0.70;50.04;100017.03;5049746;28;19924;-62
2022/03/02 06:37:48;;;;;;;;;;;;;;;-0.73;50.28;100017.34;5049840;28;19929;-62
2022/03/02 06:40:14;;;;;;;;;;;;;;;-0.60;49.81;100011.75;4977690;28;2063463;-61
2022/03/02 06:42:46;;;;;;;;;;;;;;;-0.44;50.04;100015.44;5050963;28;20382;-62
2022/03/02 06:45:13;;;;;;;;;;;;;;;-0.39;49.41;100014.03;5063941;28;19928;-62
2022/03/02 06:47:42;;;;;;;;;;;;;;;-0.34;49.50;100013.59;5071237;28;19928;-61
2022/03/02 06:50:09;;;;;;;;;;;;;;;-0.37;49.74;100009.50;5071060;28;20026;-60
2022/03/02 06:52:37;;;;;;;;;;;;;;;-0.35;49.65;100004.97;5071034;28;19977;-62
2022/03/02 06:55:10;;;;;;;;;;;;;;;-0.24;48.78;100009.94;5070651;28;19928;-61
2022/03/02 06:57:36;;;;;;;;;;;;;;;-0.18;49.41;100003.28;5062009;28;20482;-61
2022/03/02 07:00:09;;;;;;;;;;;;;;;0.00;48.75;100008.47;5048743;28;19928;-60
2022/03/02 07:02:39;;;;;;;;;;;;;;;0.09;48.78;100006.69;5050452;28;19931;-59
2022/03/02 07:05:06;;;;;;;;;;;;;;;0.23;48.17;99993.09;5070723;28;19954;-61
2022/03/02 07:07:32;;;;;;;;;;;;;;;0.31;47.69;99989.72;5049414;28;20003;-61
2022/03/02 07:09:57;;;;;;;;;;;;;;;0.40;47.94;99991.38;5046078;28;20406;-61
2022/03/02 07:12:23;;;;;;;;;;;;;;;0.56;47.20;99980.19;5046266;28;20398;-62
2022/03/02 07:14:49;;;;;;;;;;;;;;;0.57;47.06;99981.81;5047106;28;19925;-60
2022/03/02 07:17:15;;;;;;;;;;;;;;;0.63;47.62;99976.78;5047798;28;20401;-61
2022/03/02 07:19:41;;;;;;;;;;;;;;;0.75;47.27;99976.50;5047757;28;19929;-62
2022/03/02 07:22:06;;;;;;;;;;;;;;;0.70;47.01;99973.53;5047366;28;20049;-61
2022/03/02 07:24:37;;;;;;;;;;;;;;;0.73;47.10;99971.44;5048357;28;20023;-59
2022/03/02 07:27:02;;;;;;;;;;;;;;;0.75;47.03;99974.69;5049306;28;19988;-60
2022/03/02 07:29:28;;;;;;;;;;;;;;;0.84;46.56;99965.09;5032602;28;19924;-62
2022/03/02 07:31:56;;;;;;;;;;;;;;;0.95;47.12;99966.59;5049974;28;19972;-62
2022/03/02 07:34:22;;;;;;;;;;;;;;;0.96;47.25;99969.03;5050558;28;19932;-63
2022/03/02 07:36:47;;;;;;;;;;;;;;;1.10;47.08;99972.81;5049461;28;19928;-62
2022/03/02 07:39:13;;;;;;;;;;;;;;;1.26;46.07;99966.78;5049390;28;20386;-61
2022/03/02 07:41:39;;;;;;;;;;;;;;;1.41;45.94;99961.72;5047908;28;19935;-62
2022/03/02 07:44:04;;;;;;;;;;;;;;;1.51;45.33;99959.78;5046151;28;19925;-63
2022/03/02 07:46:30;;;;;;;;;;;;;;;1.57;45.51;99956.50;5049502;28;19983;-61
2022/03/02 07:48:56;;;;;;;;;;;;;;;1.57;45.55;99961.72;5050794;28;20396;-63
2022/03/02 07:51:22;;;;;;;;;;;;;;;1.58;46.25;99968.56;5061828;28;19936;-61
2022/03/02 07:53:48;;;;;;;;;;;;;;;1.65;45.77;99958.25;5048694;28;19925;-62
2022/03/02 07:56:14;;;;;;;;;;;;;;;1.81;45.26;99964.28;5082553;28;19998;-61
2022/03/02 07:58:40;;;;;;;;;;;;;;;1.83;45.23;99965.94;5084428;28;20332;-62
2022/03/02 08:01:12;;;;;;;;;;;;;;;1.88;45.17;99966.22;5070153;28;20410;-60
2022/03/02 08:03:40;;;;;;;;;;;;;;;1.95;45.51;99957.56;5057522;28;20352;-60
2022/03/02 08:06:06;;;;;;;;;;;;;;;2.08;44.95;99961.44;5046092;28;19928;-59
2022/03/02 08:08:32;;;;;;;;;;;;;;;2.14;44.71;99953.75;5049275;28;20436;-60
2022/03/02 08:10:58;;;;;;;;;;;;;;;2.03;44.75;99951.50;5046866;28;19928;-60
2022/03/02 08:13:23;;;;;;;;;;;;;;;2.04;45.06;99947.91;5044976;28;19924;-61
2022/03/02 08:15:49;;;;;;;;;;;;;;;2.11;44.87;99948.84;5046877;28;19936;-61
2022/03/02 08:18:15;;;;;;;;;;;;;;;2.17;44.61;99942.94;5047277;28;20292;-63
2022/03/02 08:20:45;;;;;;;;;;;;;;;2.24;44.38;99937.88;5047358;28;19940;-60
2022/03/02 08:23:10;;;;;;;;;;;;;;;2.25;44.67;99942.09;5046100;28;19925;-61
2022/03/02 08:25:36;;;;;;;;;;;;;;;2.28;44.22;99932.13;5049438;28;19931;-61
2022/03/02 08:28:02;;;;;;;;;;;;;;;2.45;44.39;99924.19;5048362;28;19924;-62
2022/03/02 08:30:30;;;;;;;;;;;;;;;2.47;44.41;99912.56;5048996;28;19924;-62
2022/03/02 08:32:56;;;;;;;;;;;;;;;2.55;44.10;99910.88;5047814;28;19931;-62
2022/03/02 08:35:21;;;;;;;;;;;;;;;2.61;43.93;99916.25;5030229;28;19925;-62
2022/03/02 08:37:47;;;;;;;;;;;;;;;2.67;43.76;99912.13;5046509;28;20394;-62
2022/03/02 08:40:13;;;;;;;;;;;;;;;2.74;43.63;99905.22;5046772;28;19925;-63
2022/03/02 08:42:38;;;;;;;;;;;;;;;2.78;43.58;99903.06;5046761;28;20408;-62
2022/03/02 08:45:04;;;;;;;;;;;;;;;2.89;43.33;99897.44;5047533;28;19931;-60
2022/03/02 08:47:31;;;;;;;;;;;;;;;2.93;43.11;99894.28;5047892;28;19929;-60
2022/03/02 08:49:56;;;;;;;;;;;;;;;2.94;42.88;99887.22;5045629;28;20386;-60
2022/03/02 08:52:26;;;;;;;;;;;;;;;3.03;42.84;99883.56;5047846;28;19936;-60
2022/03/02 08:54:52;;;;;;;;;;;;;;;3.09;42.96;99887.28;5046384;28;19932;-62
2022/03/02 08:57:18;;;;;;;;;;;;;;;3.02;42.98;99881.94;5046301;28;19929;-62
2022/03/02 08:59:43;;;;;;;;;;;;;;;3.14;42.83;99871.84;5047595;28;19925;-59
2022/03/02 09:02:09;;;;;;;;;;;;;;;3.22;42.71;99868.34;5047489;28;20040;-63
2022/03/02 09:04:35;;;;;;;;;;;;;;;3.25;42.77;99866.19;5047222;28;20429;-62
2022/03/02 09:07:04;;;;;;;;;;;;;;;3.28;42.72;99859.78;5047174;28;19935;-62
2022/03/02 09:09:30;;;;;;;;;;;;;;;3.38;42.30;99866.41;5045831;28;20402;-62
2022/03/02 09:11:55;;;;;;;;;;;;;;;3.40;42.25;99861.78;5046970;28;19928;-63
2022/03/02 09:14:22;;;;;;;;;;;;;;;3.49;41.68;99864.31;5046787;28;20133;-62
2022/03/02 09:16:48;;;;;;;;;;;;;;;3.51;42.00;99859.72;5047637;28;20596;-63
2022/03/02 09:19:14;;;;;;;;;;;;;;;3.62;41.86;99854.84;5046460;28;19925;-62
2022/03/02 09:21:40;;;;;;;;;;;;;;;3.69;41.82;99860.16;5030703;28;20035;-61
2022/03/02 09:24:06;;;;;;;;;;;;;;;3.74;41.85;99847.34;5045436;28;19924;-62
2022/03/02 09:26:32;;;;;;;;;;;;;;;3.74;41.65;99842.09;5046684;28;19936;-60
2022/03/02 09:28:57;;;;;;;;;;;;;;;3.85;41.03;99849.50;5045925;28;20016;-62
2022/03/02 09:31:23;;;;;;;;;;;;;;;3.87;41.32;99846.69;5051005;28;19956;-61
2022/03/02 09:33:50;;;;;;;;;;;;;;;3.94;41.03;99841.53;5049434;28;19924;-62
2022/03/02 09:36:20;;;;;;;;;;;;;;;4.01;41.01;99843.25;5047601;28;19929;-62
2022/03/02 09:38:47;;;;;;;;;;;;;;;4.08;40.83;99843.31;5049335;28;19932;-62
2022/03/02 09:41:13;;;;;;;;;;;;;;;4.13;40.45;99837.53;5049812;28;19936;-61
2022/03/02 09:43:41;;;;;;;;;;;;;;;4.14;40.71;99826.03;5050901;28;19950;-60
2022/03/02 09:46:09;;;;;;;;;;;;;;;4.25;40.10;99822.91;5049078;28;20004;-60
2022/03/02 09:48:41;;;;;;;;;;;;;;;4.29;40.21;99825.00;5052718;28;19972;-60
2022/03/02 09:51:07;;;;;;;;;;;;;;;4.38;39.83;99827.50;5049824;28;19940;-61
2022/03/02 09:53:34;;;;;;;;;;;;;;;4.40;40.39;99828.94;5049430;28;19924;-61
2022/03/02 09:56:01;;;;;;;;;;;;;;;4.36;40.28;99824.25;5050221;28;19928;-61
2022/03/02 09:58:27;;;;;;;;;;;;;;;4.35;39.81;99823.41;5050976;28;19924;-62
2022/03/02 10:00:56;;;;;;;;;;;;;;;4.36;39.64;99819.81;5048356;28;19948;-63
2022/03/02 10:03:23;;;;;;;;;;;;;;;4.44;39.71;99821.50;5048924;28;19925;-63
2022/03/02 10:05:50;;;;;;;;;;;;;;;4.51;39.86;99815.31;5047619;28;20469;-62
2022/03/02 10:08:17;;;;;;;;;;;;;;;4.46;39.81;99807.19;5032060;28;19924;-61
2022/03/02 10:10:43;;;;;;;;;;;;;;;4.52;40.20;99803.00;5049066;28;19928;-63
2022/03/02 10:13:09;;;;;;;;;;;;;;;4.53;40.09;99794.94;5048328;28;20316;-64
2022/03/02 10:15:35;;;;;;;;;;;;;;;4.60;40.16;99791.56;5059627;28;20327;-64
2022/03/02 10:18:02;;;;;;;;;;;;;;;4.69;39.60;99793.06;5048982;28;20026;-62
2022/03/02 10:20:29;;;;;;;;;;;;;;;4.71;39.27;99791.88;5014915;28;20060;-63
2022/03/02 10:23:21;;;;;;;;;;;;;;;4.76;39.35;99786.03;5047240;28;19931;-61
2022/03/02 10:25:49;;;;;;;;;;;;;;;4.74;38.83;99782.81;5047656;28;19936;-61
2022/03/02 10:28:28;;;;;;;;;;;;;;;4.75;39.45;99779.16;5050368;28;19932;-60
2022/03/02 10:31:10;;;;;;;;;;;;;;;4.82;38.60;99777.41;5050382;28;19929;-62
2022/03/02 10:33:38;;;;;;;;;;;;;;;4.86;38.89;99770.78;5027932;28;19979;-62
2022/03/02 10:36:03;;;;;;;;;;;;;;;4.80;39.49;99763.66;5042880;28;19942;-60
2022/03/02 10:38:38;;;;;;;;;;;;;;;4.83;39.75;99771.16;5048870;28;19925;-60
2022/03/02 10:41:04;;;;;;;;;;;;;;;4.86;39.33;99768.16;5050165;28;20039;-61
2022/03/02 10:43:40;;;;;;;;;;;;;;;4.89;39.11;99761.72;5031170;28;20023;-64
2022/03/02 10:46:06;;;;;;;;;;;;;;;4.92;39.28;99759.50;5051063;28;19928;-61
2022/03/02 10:48:38;;;;;;;;;;;;;;;4.98;38.95;99757.94;5036117;28;19952;-62
2022/03/02 10:51:06;;;;;;;;;;;;;;;4.96;39.12;99749.41;5031127;28;19982;-61
2022/03/02 10:53:35;;;;;;;;;;;;;;;4.99;39.60;99746.41;5049060;28;20008;-61
2022/03/02 10:56:00;;;;;;;;;;;;;;;5.03;38.74;99742.41;5047825;28;19982;-62
2022/03/02 10:58:27;;;;;;;;;;;;;;;5.03;38.82;99747.66;5064613;28;19928;-62
2022/03/02 11:00:52;;;;;;;;;;;;;;;5.06;38.77;99749.06;5066048;28;19935;-63
2022/03/02 11:03:18;;;;;;;;;;;;;;;5.08;39.47;99740.00;5069168;28;19924;-63
2022/03/02 11:05:43;;;;;;;;;;;;;;;5.08;39.13;99745.25;5064288;28;19928;-63
2022/03/02 11:08:09;;;;;;;;;;;;;;;5.15;39.32;99734.81;5053880;28;19972;-65
2022/03/02 11:10:37;;;;;;;;;;;;;;;5.17;38.14;99730.16;5043535;28;19925;-62
2022/03/02 11:13:11;;;;;;;;;;;;;;;5.18;38.03;99723.91;5049311;28;19960;-61
2022/03/02 11:16:03;;;;;;;;;;;;;;;5.16;38.01;99721.44;5047941;28;20385;-63
2022/03/02 11:18:34;;;;;;;;;;;;;;;5.22;38.56;99720.66;5048051;28;20547;-62
2022/03/02 11:21:04;;;;;;;;;;;;;;;5.27;38.86;99716.66;5049027;28;20039;-63
2022/03/02 11:23:33;;;;;;;;;;;;;;;5.21;38.92;99719.06;5049612;28;19936;-62
2022/03/02 11:26:04;;;;;;;;;;;;;;;5.19;38.47;99713.19;5046116;28;19933;-62
2022/03/02 11:28:30;;;;;;;;;;;;;;;5.22;39.00;99714.59;5050146;28;19928;-64
2022/03/02 11:30:57;;;;;;;;;;;;;;;5.25;38.98;99706.34;5048271;28;19929;-64
2022/03/02 11:33:24;;;;;;;;;;;;;;;5.25;38.86;99698.44;5031064;28;20318;-61
2022/03/02 11:35:51;;;;;;;;;;;;;;;5.21;38.56;99686.72;5048498;28;20043;-62
2022/03/02 11:38:21;;;;;;;;;;;;;;;5.11;38.62;99686.25;5049323;28;19936;-63
2022/03/02 11:40:50;;;;;;;;;;;;;;;5.13;38.55;99682.41;5029939;28;19929;-64
2022/03/02 11:43:16;;;;;;;;;;;;;;;5.14;38.51;99678.78;5047579;28;19925;-63
2022/03/02 11:45:41;;;;;;;;;;;;;;;5.26;38.09;99681.66;5056092;28;19934;-62
2022/03/02 11:48:11;;;;;;;;;;;;;;;5.32;37.85;99680.06;5048968;28;19929;-64
2022/03/02 11:50:36;;;;;;;;;;;;;;;5.34;38.04;99678.06;5050236;28;20342;-63
2022/03/02 11:53:06;;;;;;;;;;;;;;;5.34;38.29;99671.00;5066227;28;19925;-65
2022/03/02 11:55:33;;;;;;;;;;;;;;;5.26;38.03;99665.91;5063413;28;20079;-61
2022/03/02 11:58:00;;;;;;;;;;;;;;;5.25;37.72;99661.66;5067626;28;19924;-61
2022/03/02 12:00:26;;;;;;;;;;;;;;;5.25;38.10;99656.41;5064966;28;20483;-60
2022/03/02 12:02:53;;;;;;;;;;;;;;;5.31;38.06;99662.69;5051334;28;19925;-62
2022/03/02 12:05:23;;;;;;;;;;;;;;;5.30;37.46;99650.56;5045666;28;19932;-60
2022/03/02 12:07:50;;;;;;;;;;;;;;;5.32;37.45;99651.97;5049465;28;20314;-62
2022/03/02 12:10:17;;;;;;;;;;;;;;;5.26;38.63;99641.44;5048501;28;20136;-63
2022/03/02 12:12:43;;;;;;;;;;;;;;;5.23;38.14;99643.47;5047970;28;19936;-64
2022/03/02 12:15:09;;;;;;;;;;;;;;;5.26;37.79;99638.81;5047810;28;19925;-62
2022/03/02 12:17:36;;;;;;;;;;;;;;;5.26;38.41;99630.91;5047637;28;19928;-62
2022/03/02 12:20:04;;;;;;;;;;;;;;;5.28;37.96;99640.22;5031607;28;19951;-63
2022/03/02 12:22:31;;;;;;;;;;;;;;;5.27;37.45;99633.38;5047241;28;20399;-62
2022/03/02 12:24:58;;;;;;;;;;;;;;;5.27;37.19;99630.75;5049190;28;19925;-64
2022/03/02 12:27:24;;;;;;;;;;;;;;;5.28;37.78;99631.53;5046899;28;19929;-61
2022/03/02 12:29:54;;;;;;;;;;;;;;;5.32;37.69;99620.41;5051123;28;19931;-62
2022/03/02 12:32:21;;;;;;;;;;;;;;;5.33;37.81;99622.06;5049276;28;19931;-62
2022/03/02 12:34:53;;;;;;;;;;;;;;;5.34;37.07;99615.78;5054461;28;20134;-61
2022/03/02 12:37:19;;;;;;;;;;;;;;;5.33;36.94;99616.81;5066334;28;19924;-61
2022/03/02 12:39:45;;;;;;;;;;;;;;;5.31;37.74;99605.66;5068379;28;19924;-65
2022/03/02 12:42:11;;;;;;;;;;;;;;;5.30;37.92;99608.50;5065387;28;20348;-61
2022/03/02 12:44:44;;;;;;;;;;;;;;;5.27;38.70;99603.66;5045262;28;19928;-62
2022/03/02 12:47:11;;;;;;;;;;;;;;;5.31;37.65;99595.16;5067031;28;19929;-62
2022/03/02 12:49:37;;;;;;;;;;;;;;;5.30;37.40;99590.09;5067445;28;19989;-60